Time;durP1;ratioP1;P1;durP2;ratioP2;P2;SDS_P1;SDS_P2;PMS_P1;PMS_P2;Temp;Humidity;BMP_temperature;BMP_pressure;BME280_temperature;BME280_humidity;BME280_pressure;Samples;Min_cycle;Max_cycle;Signal;HPM_P1;HPM_P2
2023/07/18 00:00:41;;;;;;;11.48;6.93;;;;;;;26.89;82.37;99059.19;4989114;28;20209;-58
2023/07/18 00:03:09;;;;;;;10.05;7.28;;;;;;;26.86;82.53;99048.09;4988524;28;20600;-59
2023/07/18 00:05:39;;;;;;;9.65;7.00;;;;;;;26.84;82.59;99051.94;4988714;28;20213;-58
2023/07/18 00:08:06;;;;;;;9.73;7.13;;;;;;;26.81;82.98;99042.69;4989000;28;20224;-58
2023/07/18 00:10:33;;;;;;;10.90;7.25;;;;;;;26.83;83.12;99035.41;4988803;28;20206;-58
2023/07/18 00:13:00;;;;;;;9.25;7.05;;;;;;;26.76;83.39;99029.44;4988761;28;20213;-58
2023/07/18 00:15:28;;;;;;;10.95;7.53;;;;;;;26.70;83.99;99024.25;4988527;28;20208;-58
2023/07/18 00:17:55;;;;;;;11.57;7.43;;;;;;;26.68;84.49;99024.47;4988744;28;20202;-58
2023/07/18 00:20:23;;;;;;;9.98;6.68;;;;;;;26.69;84.22;99017.41;4988716;28;20201;-58
2023/07/18 00:22:51;;;;;;;12.48;7.40;;;;;;;26.64;84.66;99015.41;4988841;28;20194;-58
2023/07/18 00:25:20;;;;;;;9.30;7.03;;;;;;;26.59;84.92;99013.47;4988565;28;20237;-58
2023/07/18 00:27:47;;;;;;;13.43;7.18;;;;;;;26.56;85.46;99021.75;4988529;28;20206;-58
2023/07/18 00:30:14;;;;;;;11.45;7.25;;;;;;;26.50;85.84;99016.56;4988976;28;20212;-58
2023/07/18 00:32:44;;;;;;;11.40;7.75;;;;;;;26.49;85.79;99014.94;4988408;28;20682;-58
2023/07/18 00:35:11;;;;;;;11.60;7.05;;;;;;;26.45;85.94;99026.88;4988352;28;20215;-58
2023/07/18 00:37:39;;;;;;;10.30;6.88;;;;;;;26.37;86.38;99013.00;4988261;28;20640;-58
2023/07/18 00:40:10;;;;;;;12.57;7.38;;;;;;;26.35;86.38;99017.66;4988175;28;20209;-58
2023/07/18 00:42:37;;;;;;;10.73;7.53;;;;;;;26.31;86.61;99020.94;4988271;28;20295;-58
2023/07/18 00:45:06;;;;;;;23.98;7.35;;;;;;;26.31;86.80;99024.34;4988142;28;20236;-58
2023/07/18 00:47:37;;;;;;;12.50;7.57;;;;;;;26.32;87.04;99022.53;4988148;28;20711;-58
2023/07/18 00:50:07;;;;;;;9.85;6.95;;;;;;;26.32;87.47;99015.47;4988201;28;20212;-58
2023/07/18 00:52:34;;;;;;;11.32;7.70;;;;;;;26.34;87.45;99015.28;4988008;28;20252;-58
2023/07/18 00:55:02;;;;;;;14.23;7.35;;;;;;;26.34;87.29;99010.81;4991653;28;20205;-58
2023/07/18 00:57:31;;;;;;;11.23;7.43;;;;;;;26.35;87.29;99003.75;4994595;28;20197;-58
2023/07/18 00:59:58;;;;;;;11.50;7.15;;;;;;;26.35;87.30;99006.38;4994633;28;20605;-58
2023/07/18 01:02:25;;;;;;;10.82;7.45;;;;;;;26.30;87.99;99003.63;4994303;28;20209;-58
2023/07/18 01:04:52;;;;;;;10.23;7.13;;;;;;;26.29;87.95;99004.63;4992798;28;20568;-58
2023/07/18 01:07:20;;;;;;;12.43;8.02;;;;;;;26.26;88.85;99011.09;4992872;28;20201;-58
2023/07/18 01:09:47;;;;;;;10.23;7.40;;;;;;;26.18;89.45;99014.00;4994108;28;20228;-58
2023/07/18 01:12:14;;;;;;;10.00;7.47;;;;;;;26.16;89.64;99000.31;4994265;28;20201;-58
2023/07/18 01:14:42;;;;;;;11.63;7.57;;;;;;;26.16;90.35;99008.16;4994565;28;20675;-58
2023/07/18 01:17:11;;;;;;;12.75;7.53;;;;;;;26.14;90.19;99010.19;4994303;28;20205;-58
2023/07/18 01:19:38;;;;;;;11.82;7.70;;;;;;;26.09;91.23;99002.16;4994429;28;20205;-58
2023/07/18 01:22:08;;;;;;;11.02;7.55;;;;;;;26.06;91.24;99007.81;4994448;28;20653;-58
2023/07/18 01:24:35;;;;;;;14.00;7.35;;;;;;;26.00;92.06;99003.44;4994565;28;20233;-58
2023/07/18 01:27:02;;;;;;;12.15;8.07;;;;;;;25.86;92.81;99016.66;4994362;28;20202;-58
2023/07/18 01:29:29;;;;;;;11.25;7.32;;;;;;;25.85;93.40;99009.78;4994460;28;20667;-58
2023/07/18 01:31:56;;;;;;;12.05;7.65;;;;;;;25.83;93.60;99022.31;4994247;28;20205;-58
2023/07/18 01:34:23;;;;;;;12.25;7.88;;;;;;;25.82;93.39;99018.06;4994246;28;20718;-58
2023/07/18 01:36:50;;;;;;;9.70;6.93;;;;;;;25.80;93.61;99020.06;4994236;28;20209;-58
2023/07/18 01:39:19;;;;;;;11.10;7.47;;;;;;;25.79;93.68;99018.44;4994282;28;20197;-58
2023/07/18 01:41:47;;;;;;;12.27;7.78;;;;;;;25.69;94.50;99023.38;4994317;28;20198;-58
2023/07/18 01:44:14;;;;;;;11.18;7.38;;;;;;;25.63;94.90;99024.22;4994241;28;20247;-58
2023/07/18 01:46:41;;;;;;;12.95;7.85;;;;;;;25.53;96.04;99024.63;4994275;28;20216;-58
2023/07/18 01:49:08;;;;;;;11.23;7.28;;;;;;;25.43;96.95;99019.88;4994086;28;20206;-58
2023/07/18 01:51:37;;;;;;;13.30;8.68;;;;;;;25.41;96.98;99024.50;4994196;28;20271;-58
2023/07/18 01:54:05;;;;;;;12.25;7.80;;;;;;;25.33;98.00;99019.50;4994593;28;20228;-58
2023/07/18 01:56:33;;;;;;;13.10;8.13;;;;;;;25.31;98.12;99021.53;4994186;28;20268;-58
2023/07/18 01:59:00;;;;;;;11.75;7.80;;;;;;;25.27;98.61;99015.09;4993992;28;20197;-58
2023/07/18 02:01:27;;;;;;;11.45;7.68;;;;;;;25.31;98.56;99021.53;4994112;28;20571;-58
2023/07/18 02:03:53;;;;;;;12.93;7.88;;;;;;;25.30;98.65;99025.16;4994152;28;20237;-58
2023/07/18 02:06:24;;;;;;;12.65;8.00;;;;;;;25.28;98.58;99016.72;4991951;28;20670;-58
2023/07/18 02:08:51;;;;;;;11.15;7.32;;;;;;;25.26;99.19;99018.72;4991362;28;20225;-58
2023/07/18 02:11:18;;;;;;;13.13;7.43;;;;;;;25.26;99.30;99024.75;4990757;28;20197;-58
2023/07/18 02:13:46;;;;;;;11.30;7.50;;;;;;;25.26;98.91;99024.75;4990895;28;20202;-58
2023/07/18 02:16:13;;;;;;;14.05;8.30;;;;;;;25.24;99.53;99026.78;4990808;28;20997;-58
2023/07/18 02:18:43;;;;;;;19.27;8.10;;;;;;;25.25;99.62;99030.22;4990707;28;20537;-58
2023/07/18 02:21:10;;;;;;;12.27;7.57;;;;;;;25.23;99.73;99024.38;4990732;28;20252;-58
2023/07/18 02:23:36;;;;;;;11.95;8.55;;;;;;;25.23;100.00;99030.41;4990499;28;20209;-59
2023/07/18 02:26:04;;;;;;;13.98;8.80;;;;;;;25.25;99.97;99027.59;4990831;28;20206;-58
2023/07/18 02:28:30;;;;;;;12.52;8.02;;;;;;;25.21;100.00;99026.41;4990250;28;20675;-58
2023/07/18 02:30:59;;;;;;;12.80;7.70;;;;;;;25.15;100.00;99032.47;4990603;28;20208;-58
2023/07/18 02:33:26;;;;;;;13.20;8.27;;;;;;;25.11;100.00;99031.25;4990157;28;20661;-58
2023/07/18 02:35:53;;;;;;;14.18;7.72;;;;;;;25.07;100.00;99031.66;4990503;28;20205;-58
2023/07/18 02:38:20;;;;;;;15.10;8.18;;;;;;;25.05;100.00;99033.66;4990680;28;20609;-59
2023/07/18 02:40:47;;;;;;;12.10;7.72;;;;;;;25.03;100.00;99038.28;4990436;28;20197;-58
2023/07/18 02:43:14;;;;;;;11.23;7.80;;;;;;;24.98;100.00;99032.88;4990607;28;20452;-58
2023/07/18 02:45:41;;;;;;;12.52;8.02;;;;;;;24.90;100.00;99035.72;4990198;28;20862;-58
2023/07/18 02:48:09;;;;;;;13.45;8.20;;;;;;;24.84;100.00;99032.13;4990201;28;20197;-58
2023/07/18 02:50:36;;;;;;;13.23;8.40;;;;;;;24.74;100.00;99041.38;4990134;28;20407;-58
2023/07/18 02:53:03;;;;;;;13.00;7.90;;;;;;;24.63;100.00;99035.75;4988608;28;20595;-58
2023/07/18 02:55:30;;;;;;;11.18;7.45;;;;;;;24.62;100.00;99034.16;4988573;28;20379;-60
2023/07/18 02:57:56;;;;;;;11.88;8.27;;;;;;;24.68;100.00;99031.75;4989075;28;20209;-58
2023/07/18 03:00:25;;;;;;;13.65;7.72;;;;;;;24.73;100.00;99039.78;4990112;28;20205;-58
2023/07/18 03:02:53;;;;;;;16.35;7.72;;;;;;;24.73;100.00;99034.56;4989951;28;20221;-58
2023/07/18 03:05:21;;;;;;;11.93;7.55;;;;;;;24.66;100.00;99028.50;4990212;28;20311;-58
2023/07/18 03:07:49;;;;;;;11.38;7.50;;;;;;;24.57;100.00;99031.34;4990035;28;20212;-58
2023/07/18 03:10:16;;;;;;;10.15;6.97;;;;;;;24.50;100.00;99021.91;4990159;28;20683;-58
2023/07/18 03:12:42;;;;;;;12.02;8.18;;;;;;;24.55;100.00;99028.16;4989857;28;20216;-58
2023/07/18 03:15:10;;;;;;;12.77;8.30;;;;;;;24.55;100.00;99022.91;4989660;28;20220;-58
2023/07/18 03:17:37;;;;;;;13.77;7.90;;;;;;;24.52;100.00;99028.53;4988951;28;20233;-58
2023/07/18 03:20:16;;;;;;;11.70;7.97;;;;;;;24.55;100.00;99020.31;4989700;28;20218;-58
2023/07/18 03:22:45;;;;;;;13.68;8.27;;;;;;;24.45;100.00;99024.31;4989840;28;20610;-58
2023/07/18 03:25:12;;;;;;;11.80;7.93;;;;;;;24.38;100.00;99026.91;4989467;28;20244;-58
2023/07/18 03:27:39;;;;;;;15.43;8.38;;;;;;;24.45;100.00;99026.94;4989557;28;20217;-58
2023/07/18 03:30:10;;;;;;;12.95;8.00;;;;;;;24.49;100.00;99031.53;4989494;28;20194;-59
2023/07/18 03:32:38;;;;;;;11.63;7.53;;;;;;;24.44;100.00;99028.75;4989583;28;20228;-58
2023/07/18 03:35:06;;;;;;;12.93;8.25;;;;;;;24.45;100.00;99027.72;4989219;28;20202;-58
2023/07/18 03:37:33;;;;;;;14.63;7.93;;;;;;;24.40;100.00;99025.72;4989351;28;20201;-58
2023/07/18 03:40:01;;;;;;;12.02;7.55;;;;;;;24.40;100.00;99027.50;4989516;28;20592;-58
2023/07/18 03:42:28;;;;;;;11.65;8.05;;;;;;;24.46;100.00;99025.91;4989581;28;20224;-58
2023/07/18 03:44:55;;;;;;;14.85;8.88;;;;;;;24.52;100.00;99032.94;4989573;28;20619;-58
2023/07/18 03:47:22;;;;;;;12.10;7.90;;;;;;;24.50;100.00;99030.56;4989273;28;20221;-58
2023/07/18 03:49:48;;;;;;;11.05;7.72;;;;;;;24.49;100.00;99034.16;4989083;28;20197;-58
2023/07/18 03:52:15;;;;;;;11.52;7.72;;;;;;;24.50;100.00;99030.56;4989105;28;20209;-58
2023/07/18 03:54:42;;;;;;;13.00;7.80;;;;;;;24.48;100.00;99032.56;4988934;28;20637;-58
2023/07/18 03:57:11;;;;;;;12.43;8.13;;;;;;;24.49;100.00;99044.59;4988963;28;20205;-58
2023/07/18 03:59:38;;;;;;;13.88;8.40;;;;;;;24.48;100.00;99035.16;4989353;28;20210;-58
2023/07/18 04:02:05;;;;;;;12.32;8.60;;;;;;;24.56;100.00;99045.44;4988804;28;20205;-58
2023/07/18 04:04:32;;;;;;;12.13;7.88;;;;;;;24.63;100.00;99051.44;4988825;28;20225;-57
2023/07/18 04:06:59;;;;;;;13.57;8.55;;;;;;;24.69;100.00;99056.88;4989075;28;20236;-58
2023/07/18 04:09:26;;;;;;;12.52;8.45;;;;;;;24.78;100.00;99053.03;4988797;28;20202;-58
2023/07/18 04:11:53;;;;;;;15.00;8.68;;;;;;;24.82;100.00;99054.25;4988855;28;20205;-58
2023/07/18 04:14:21;;;;;;;18.05;9.43;;;;;;;24.88;100.00;99058.66;4988671;28;20694;-58
2023/07/18 04:16:48;;;;;;;12.45;8.27;;;;;;;24.86;100.00;99050.22;4989061;28;20209;-58
2023/07/18 04:19:14;;;;;;;13.00;8.82;;;;;;;24.93;100.00;99055.41;4988912;28;20243;-58
2023/07/18 04:21:41;;;;;;;14.65;8.02;;;;;;;24.98;100.00;99059.03;4988710;28;20213;-58
2023/07/18 04:24:08;;;;;;;13.98;9.07;;;;;;;25.03;100.00;99054.00;4988575;28;20201;-59
2023/07/18 04:26:35;;;;;;;14.02;9.13;;;;;;;25.11;100.00;99065.25;4988330;28;20236;-58
2023/07/18 04:29:05;;;;;;;14.35;8.63;;;;;;;25.16;100.00;99055.00;4987891;28;20236;-58
2023/07/18 04:31:33;;;;;;;12.45;8.55;;;;;;;25.26;100.00;99065.84;4988773;28;20214;-58
2023/07/18 04:34:00;;;;;;;13.88;9.00;;;;;;;25.29;100.00;99057.56;4988379;28;20252;-58
2023/07/18 04:36:27;;;;;;;17.58;9.43;;;;;;;25.35;100.00;99054.13;4988482;28;20766;-58
2023/07/18 04:38:54;;;;;;;14.70;8.88;;;;;;;25.37;100.00;99051.31;4988365;28;20205;-58
2023/07/18 04:41:21;;;;;;;15.27;9.80;;;;;;;25.44;100.00;99052.88;4988562;28;20208;-59
2023/07/18 04:43:48;;;;;;;11.98;8.52;;;;;;;25.54;100.00;99047.22;4988640;28;20675;-58
2023/07/18 04:46:14;;;;;;;16.60;9.52;;;;;;;25.63;100.00;99050.41;4988133;28;20233;-58
2023/07/18 04:48:43;;;;;;;14.20;9.07;;;;;;;25.73;100.00;99045.50;4988402;28;20205;-59
2023/07/18 04:51:10;;;;;;;12.65;8.80;;;;;;;25.79;100.00;99055.13;4988379;28;20209;-58
2023/07/18 04:53:37;;;;;;;14.90;9.35;;;;;;;25.87;100.00;99047.06;4988381;28;20303;-58
2023/07/18 04:56:05;;;;;;;15.50;9.60;;;;;;;26.02;100.00;99053.81;4988255;28;20202;-58
2023/07/18 04:58:32;;;;;;;13.48;9.38;;;;;;;26.13;100.00;99055.75;4988153;28;20229;-58
2023/07/18 05:00:59;;;;;;;15.20;10.23;;;;;;;26.29;100.00;99051.78;4988245;28;20670;-58
2023/07/18 05:03:27;;;;;;;17.80;9.35;;;;;;;26.42;100.00;99049.88;4988429;28;20212;-58
2023/07/18 05:05:57;;;;;;;12.70;9.23;;;;;;;26.66;100.00;99050.09;4988039;28;20241;-58
2023/07/18 05:08:23;;;;;;;14.23;9.82;;;;;;;26.81;99.48;99057.63;4988458;28;20202;-58
2023/07/18 05:10:50;;;;;;;15.73;9.63;;;;;;;27.04;99.22;99052.53;4988300;28;20201;-58
2023/07/18 05:13:18;;;;;;;15.82;9.70;;;;;;;27.16;99.07;99059.72;4988497;28;20208;-58
2023/07/18 05:15:44;;;;;;;16.48;10.60;;;;;;;27.22;97.81;99054.38;4988177;28;20693;-58
2023/07/18 05:18:11;;;;;;;15.88;10.18;;;;;;;27.28;98.51;99055.31;4987837;28;20221;-58
2023/07/18 05:20:38;;;;;;;17.65;11.20;;;;;;;27.44;97.75;99061.81;4988207;28;20212;-59
2023/07/18 05:23:06;;;;;;;15.13;10.25;;;;;;;27.65;97.28;99058.69;4987969;28;20637;-58
2023/07/18 05:25:33;;;;;;;14.18;10.30;;;;;;;27.77;96.09;99070.06;4987934;28;20237;-58
2023/07/18 05:28:00;;;;;;;15.65;10.55;;;;;;;27.87;94.89;99068.78;4987988;28;20202;-58
2023/07/18 05:30:27;;;;;;;13.80;10.45;;;;;;;27.94;94.52;99072.09;4987836;28;20202;-59
2023/07/18 05:32:54;;;;;;;24.73;11.35;;;;;;;28.09;97.27;99069.84;4988078;28;20635;-58
2023/07/18 05:35:21;;;;;;;17.30;10.80;;;;;;;28.19;92.62;99071.94;4988064;28;20205;-59
2023/07/18 05:37:48;;;;;;;16.30;10.07;;;;;;;28.29;93.11;99068.72;4987845;28;20671;-58
2023/07/18 05:40:16;;;;;;;18.20;10.43;;;;;;;28.34;91.32;99072.28;4988524;28;20198;-59
2023/07/18 05:42:44;;;;;;;14.80;10.00;;;;;;;28.48;90.50;99067.66;4990697;28;20223;-59
2023/07/18 05:45:11;;;;;;;15.68;10.32;;;;;;;28.52;90.51;99071.41;4991672;28;20505;-58
2023/07/18 05:47:38;;;;;;;13.23;9.63;;;;;;;28.56;89.92;99069.91;4991642;28;20599;-59
2023/07/18 05:50:07;;;;;;;17.35;10.48;;;;;;;28.71;90.16;99063.41;4991506;28;20205;-59
2023/07/18 05:52:34;;;;;;;17.13;10.38;;;;;;;28.82;89.94;99070.50;4991420;28;20209;-59
2023/07/18 05:55:01;;;;;;;16.15;11.00;;;;;;;28.97;89.36;99068.19;4991390;28;20202;-59
2023/07/18 05:57:29;;;;;;;13.68;9.60;;;;;;;29.05;87.70;99067.84;4991146;28;20198;-58
2023/07/18 05:59:56;;;;;;;14.30;9.73;;;;;;;29.22;89.29;99069.78;4991043;28;20205;-59
2023/07/18 06:02:22;;;;;;;14.82;10.00;;;;;;;29.33;87.88;99068.97;4991219;28;20236;-58
2023/07/18 06:04:50;;;;;;;14.57;9.80;;;;;;;29.45;88.21;99068.91;4991491;28;20569;-59
2023/07/18 06:07:16;;;;;;;19.25;9.55;;;;;;;29.56;86.78;99074.16;4991035;28;20216;-59
2023/07/18 06:09:43;;;;;;;14.10;9.98;;;;;;;29.73;87.97;99068.13;4991001;28;20609;-60
2023/07/18 06:12:11;;;;;;;14.65;9.48;;;;;;;29.78;86.71;99074.31;4991419;28;20205;-60
2023/07/18 06:14:40;;;;;;;16.88;9.73;;;;;;;29.92;84.42;99061.63;4990930;28;20248;-60
2023/07/18 06:17:07;;;;;;;12.15;9.20;;;;;;;29.94;85.07;99070.09;4990906;28;20206;-61
2023/07/18 06:19:34;;;;;;;17.70;11.50;;;;;;;30.17;85.12;99071.00;4990898;28;20202;-61
2023/07/18 06:22:00;;;;;;;35.42;22.50;;;;;;;30.41;83.57;99067.19;4990622;28;20208;-64
2023/07/18 06:24:27;;;;;;;51.88;29.58;;;;;;;30.57;81.88;99062.13;4990811;28;20198;-61
2023/07/18 06:26:54;;;;;;;24.15;15.65;;;;;;;30.74;82.34;99068.19;4990662;28;20750;-62
2023/07/18 06:29:21;;;;;;;14.10;9.68;;;;;;;30.87;81.31;99061.81;4990683;28;20202;-61
2023/07/18 06:31:51;;;;;;;14.20;9.43;;;;;;;30.99;81.04;99064.34;4991191;28;20198;-60
2023/07/18 06:34:18;;;;;;;14.82;9.48;;;;;;;31.07;78.81;99069.19;4991231;28;20232;-62
2023/07/18 06:36:46;;;;;;;14.85;8.40;;;;;;;31.18;79.28;99070.88;4990843;28;20695;-61
2023/07/18 06:39:13;;;;;;;13.68;9.20;;;;;;;31.25;81.08;99068.88;4990496;28;20260;-61
2023/07/18 06:41:40;;;;;;;14.98;9.30;;;;;;;31.38;77.86;99077.50;4990896;28;20242;-62
2023/07/18 06:44:09;;;;;;;13.10;9.38;;;;;;;31.48;78.10;99073.13;4990534;28;20675;-61
2023/07/18 06:46:36;;;;;;;13.20;8.95;;;;;;;31.53;78.14;99080.31;4990254;28;20243;-61
2023/07/18 06:49:04;;;;;;;20.83;12.20;;;;;;;31.68;80.79;99077.84;4989941;28;20777;-62
2023/07/18 06:51:31;;;;;;;12.77;9.45;;;;;;;31.78;76.12;99083.22;4990394;28;20233;-62
2023/07/18 06:53:58;;;;;;;13.65;9.10;;;;;;;31.82;76.06;99083.50;4989795;28;20210;-63
2023/07/18 06:56:25;;;;;;;19.80;11.93;;;;;;;31.70;75.84;99085.50;4990155;28;20671;-62
2023/07/18 06:58:51;;;;;;;15.30;10.43;;;;;;;31.84;76.71;99085.91;4990087;28;20203;-62
2023/07/18 07:01:18;;;;;;;17.55;12.73;;;;;;;32.00;75.94;99080.53;4990249;28;20591;-63
2023/07/18 07:03:45;;;;;;;13.77;9.07;;;;;;;32.12;76.65;99076.94;4989960;28;20209;-61
2023/07/18 07:06:14;;;;;;;18.85;13.13;;;;;;;32.22;74.29;99082.31;4989722;28;20751;-62
2023/07/18 07:08:41;;;;;;;16.45;11.02;;;;;;;32.36;75.59;99082.69;4990035;28;20202;-62
2023/07/18 07:11:08;;;;;;;29.48;18.05;;;;;;;32.41;72.71;99085.38;4989911;28;20213;-60
2023/07/18 07:13:36;;;;;;;13.80;9.15;;;;;;;32.53;71.61;99093.16;4990090;28;20206;-63
2023/07/18 07:16:03;;;;;;;13.23;9.07;;;;;;;32.68;73.08;99088.75;4989757;28;20252;-62
2023/07/18 07:18:30;;;;;;;11.93;8.57;;;;;;;33.01;76.63;99089.47;4989865;28;20224;-63
2023/07/18 07:20:56;;;;;;;13.02;9.00;;;;;;;33.13;68.08;99092.72;4989846;28;20208;-63
2023/07/18 07:23:25;;;;;;;12.00;8.43;;;;;;;33.26;67.74;99096.75;4989665;28;20201;-63
2023/07/18 07:25:52;;;;;;;12.57;8.75;;;;;;;33.42;69.26;99100.22;4989618;28;20264;-62
2023/07/18 07:28:19;;;;;;;16.50;8.68;;;;;;;33.64;69.34;99091.31;4989659;28;20208;-59
2023/07/18 07:30:46;;;;;;;10.60;8.68;;;;;;;33.80;68.36;99100.88;4989828;28;20216;-58
2023/07/18 07:33:12;;;;;;;10.45;8.05;;;;;;;33.99;65.38;99106.47;4989237;28;20237;-60
2023/07/18 07:35:39;;;;;;;11.93;8.38;;;;;;;34.15;68.14;99112.59;4989268;28;20205;-59
2023/07/18 07:38:07;;;;;;;10.45;7.68;;;;;;;34.28;66.15;99106.00;4989573;28;20213;-59
2023/07/18 07:40:35;;;;;;;12.43;8.23;;;;;;;34.47;64.78;99113.16;4989457;28;20205;-60
2023/07/18 07:43:02;;;;;;;13.30;8.23;;;;;;;34.65;65.45;99111.03;4989286;28;20205;-60
2023/07/18 07:45:29;;;;;;;11.77;8.27;;;;;;;34.73;62.28;99105.16;4989099;28;20198;-59
2023/07/18 07:47:55;;;;;;;13.27;8.38;;;;;;;34.87;58.64;99108.84;4989117;28;20209;-57
2023/07/18 07:50:22;;;;;;;10.13;7.93;;;;;;;35.03;63.06;99117.56;4989669;28;20205;-57
2023/07/18 07:52:49;;;;;;;13.10;7.70;;;;;;;35.27;68.16;99107.13;4989137;28;20224;-56
2023/07/18 07:55:16;;;;;;;11.85;7.95;;;;;;;35.34;61.20;99110.31;4989205;28;20205;-56
2023/07/18 07:57:45;;;;;;;10.63;8.07;;;;;;;35.35;58.15;99117.22;4989218;28;20521;-57
2023/07/18 08:00:13;;;;;;;11.43;8.50;;;;;;;35.40;59.44;99115.56;4989215;28;20201;-57
2023/07/18 08:02:39;;;;;;;10.48;7.82;;;;;;;35.44;56.79;99112.13;4989227;28;20221;-57
2023/07/18 08:05:07;;;;;;;13.65;9.05;;;;;;;35.42;59.06;99113.44;4988294;28;20212;-57
2023/07/18 08:07:34;;;;;;;12.77;8.93;;;;;;;35.57;61.15;99110.72;4988748;28;20232;-57
2023/07/18 08:10:00;;;;;;;17.70;9.90;;;;;;;35.70;59.92;99115.47;4988767;28;20201;-57
2023/07/18 08:12:27;;;;;;;15.18;9.57;;;;;;;35.83;61.75;99114.81;4988779;28;20229;-58
2023/07/18 08:14:56;;;;;;;13.90;9.70;;;;;;;35.68;55.55;99122.91;4988922;28;20201;-57
2023/07/18 08:17:22;;;;;;;16.13;9.55;;;;;;;35.95;61.25;99117.13;4988891;28;20222;-57
2023/07/18 08:19:49;;;;;;;22.85;9.27;;;;;;;36.11;58.28;99119.72;4988561;28;20289;-57
2023/07/18 08:22:16;;;;;;;14.25;9.75;;;;;;;35.83;54.69;99125.47;4988788;28;20202;-57
2023/07/18 08:24:43;;;;;;;13.07;9.77;;;;;;;35.73;54.54;99130.88;4988673;28;20214;-57
2023/07/18 08:27:10;;;;;;;15.52;9.52;;;;;;;35.83;55.39;99124.66;4988541;28;20236;-57
2023/07/18 08:29:37;;;;;;;13.32;9.98;;;;;;;35.91;56.74;99125.97;4988599;28;20624;-58
2023/07/18 08:32:06;;;;;;;14.13;10.10;;;;;;;36.14;56.38;99125.28;4988304;28;20593;-57
2023/07/18 08:34:34;;;;;;;14.32;10.05;;;;;;;36.31;57.31;99124.09;4988672;28;20620;-57
2023/07/18 08:37:02;;;;;;;12.35;9.82;;;;;;;36.47;53.76;99123.66;4988153;28;20631;-57
2023/07/18 08:39:29;;;;;;;12.75;9.70;;;;;;;36.43;54.74;99132.50;4988563;28;20229;-58
2023/07/18 08:41:59;;;;;;;14.05;10.40;;;;;;;36.60;57.70;99129.47;4988372;28;20198;-58
2023/07/18 08:44:26;;;;;;;14.77;10.60;;;;;;;36.80;54.49;99121.25;4988580;28;20205;-57
2023/07/18 08:46:54;;;;;;;15.98;10.63;;;;;;;36.89;55.69;99124.09;4988501;28;20647;-57
2023/07/18 08:49:28;;;;;;;12.40;9.88;;;;;;;36.87;51.94;99121.69;4988550;28;20201;-57
2023/07/18 08:51:55;;;;;;;14.27;10.02;;;;;;;37.01;53.35;99132.50;4988340;28;20732;-57
2023/07/18 08:54:22;;;;;;;13.50;10.32;;;;;;;36.96;55.28;99121.88;4988577;28;20201;-58
2023/07/18 08:56:50;;;;;;;12.95;9.43;;;;;;;37.03;53.33;99129.53;4988309;28;20663;-57
2023/07/18 08:59:18;;;;;;;13.85;9.73;;;;;;;37.19;53.58;99127.50;4988653;28;20198;-57
2023/07/18 09:01:48;;;;;;;13.85;10.07;;;;;;;37.33;55.07;99118.50;4988489;28;20750;-57
2023/07/18 09:04:15;;;;;;;14.35;10.25;;;;;;;37.46;56.11;99126.88;4988220;28;20319;-57
2023/07/18 09:06:49;;;;;;;12.45;8.88;;;;;;;37.48;52.54;99125.53;4988281;28;20247;-57
2023/07/18 09:09:18;;;;;;;11.80;8.85;;;;;;;37.51;49.05;99129.53;4988356;28;20478;-57
2023/07/18 09:11:58;;;;;;;11.70;9.30;;;;;;;37.29;50.13;99128.16;4988621;28;20617;-57
2023/07/18 09:14:27;;;;;;;12.32;9.05;;;;;;;37.44;50.60;99123.69;4988314;28;20201;-57
2023/07/18 09:16:55;;;;;;;13.18;9.23;;;;;;;37.57;52.51;99118.47;4991307;28;20201;-57
2023/07/18 09:19:39;;;;;;;15.05;9.70;;;;;;;37.57;50.08;99123.81;4992138;28;20209;-57
2023/07/18 09:22:09;;;;;;;13.10;9.25;;;;;;;37.46;48.52;99126.88;4991907;28;20477;-57
2023/07/18 09:24:37;;;;;;;13.15;9.25;;;;;;;37.67;52.21;99128.22;4992175;28;20201;-57
2023/07/18 09:27:05;;;;;;;12.45;9.00;;;;;;;37.74;52.38;99117.97;4992199;28;20244;-57
2023/07/18 09:29:32;;;;;;;11.88;9.63;;;;;;;37.73;49.95;99115.59;4992020;28;20212;-57
2023/07/18 09:31:59;;;;;;;14.45;10.07;;;;;;;37.76;50.09;99120.34;4991705;28;20205;-56
2023/07/18 09:34:27;;;;;;;12.60;9.75;;;;;;;37.94;49.20;99111.56;4991835;28;20206;-57
2023/07/18 09:36:59;;;;;;;13.63;9.90;;;;;;;38.32;50.68;99114.16;4991718;28;20205;-57
2023/07/18 09:39:29;;;;;;;15.23;10.13;;;;;;;38.33;50.48;99112.28;4991860;28;20581;-57
2023/07/18 09:41:57;;;;;;;12.35;9.30;;;;;;;38.45;49.98;99115.28;4991478;28;20201;-57
2023/07/18 09:44:26;;;;;;;12.15;9.27;;;;;;;38.48;49.36;99104.78;4991672;28;20610;-57
2023/07/18 09:46:55;;;;;;;12.80;9.57;;;;;;;38.53;49.11;99111.16;4991538;28;20735;-57
2023/07/18 09:49:22;;;;;;;10.70;9.00;;;;;;;38.34;47.71;99120.00;4991811;28;20286;-57
2023/07/18 09:51:58;;;;;;;11.55;8.73;;;;;;;38.31;48.05;99115.22;4991410;28;20704;-57
2023/07/18 09:54:27;;;;;;;12.82;9.05;;;;;;;38.45;52.01;99104.59;4991430;28;20201;-57
2023/07/18 09:56:57;;;;;;;11.13;8.88;;;;;;;38.54;46.82;99112.72;4991494;28;20201;-57
2023/07/18 09:59:27;;;;;;;12.60;8.50;;;;;;;38.66;48.44;99105.84;4991748;28;20216;-57
2023/07/18 10:01:55;;;;;;;9.52;7.75;;;;;;;38.68;44.76;99100.97;4991069;28;20311;-57
2023/07/18 10:04:22;;;;;;;9.88;8.05;;;;;;;38.83;49.74;99094.53;4990872;28;20197;-57
2023/07/18 10:06:50;;;;;;;10.65;7.97;;;;;;;38.71;43.90;99097.69;4990392;28;20248;-57
2023/07/18 10:09:19;;;;;;;9.43;7.40;;;;;;;38.85;50.24;99087.03;4991303;28;20216;-57
2023/07/18 10:12:12;;;;;;;8.63;7.57;;;;;;;38.66;45.39;99078.28;4991206;28;20201;-57
2023/07/18 10:14:56;;;;;;;9.05;5.85;;;;;;;38.84;40.35;99090.78;4988854;28;20205;-57
2023/07/18 10:17:40;;;;;;;8.65;6.25;;;;;;;39.14;41.42;99081.34;4991208;28;20255;-56
2023/07/18 10:20:18;;;;;;;9.70;6.15;;;;;;;39.06;43.10;99081.28;4989927;28;20263;-58
2023/07/18 10:22:53;;;;;;;10.00;6.32;;;;;;;39.18;43.25;99076.19;4990858;28;20199;-57
2023/07/18 10:25:20;;;;;;;9.02;6.18;;;;;;;39.36;44.41;99069.97;4991237;28;20685;-57
2023/07/18 10:27:50;;;;;;;9.10;7.22;;;;;;;39.18;43.13;99078.88;4990350;28;20236;-57
2023/07/18 10:30:18;;;;;;;8.35;7.03;;;;;;;39.09;40.92;99064.63;4990964;28;20457;-57
2023/07/18 10:32:52;;;;;;;8.93;7.55;;;;;;;39.08;42.09;99071.88;4990870;28;20236;-57
2023/07/18 10:35:20;;;;;;;11.05;7.40;;;;;;;39.12;42.18;99069.38;4990468;28;20197;-57
2023/07/18 10:37:51;;;;;;;9.23;7.55;;;;;;;39.42;45.26;99051.09;4990753;28;20239;-57
2023/07/18 10:40:33;;;;;;;9.27;7.75;;;;;;;39.22;41.60;99053.13;4990544;28;20213;-57
2023/07/18 10:43:01;;;;;;;13.40;7.80;;;;;;;39.36;42.77;99053.91;4990830;28;20704;-57
2023/07/18 10:45:29;;;;;;;10.07;7.78;;;;;;;39.37;41.71;99052.81;4990601;28;20263;-57
2023/07/18 10:47:56;;;;;;;8.80;7.47;;;;;;;39.21;41.08;99056.88;4990287;28;20235;-58
2023/07/18 10:50:23;;;;;;;8.68;7.07;;;;;;;39.32;39.64;99049.44;4990464;28;20216;-57
2023/07/18 10:52:50;;;;;;;8.65;7.03;;;;;;;39.38;40.49;99041.00;4990320;28;20686;-58
2023/07/18 10:55:17;;;;;;;9.50;7.38;;;;;;;39.15;41.00;99058.88;4990170;28;20207;-57
2023/07/18 10:57:45;;;;;;;10.43;7.43;;;;;;;39.14;40.52;99056.50;4990179;28;20679;-57
2023/07/18 11:00:15;;;;;;;9.07;7.35;;;;;;;39.12;40.25;99059.47;4990148;28;20203;-57
2023/07/18 11:02:44;;;;;;;9.07;6.75;;;;;;;39.21;39.16;99050.72;4990116;28;20193;-57
2023/07/18 11:05:16;;;;;;;12.05;7.32;;;;;;;39.23;40.88;99044.00;4989990;28;20259;-57
2023/07/18 11:07:45;;;;;;;8.98;7.32;;;;;;;39.10;42.16;99042.16;4990039;28;20243;-57
2023/07/18 11:10:12;;;;;;;12.05;7.78;;;;;;;39.10;40.47;99050.19;4990031;28;20197;-57
2023/07/18 11:12:40;;;;;;;8.75;7.22;;;;;;;39.34;43.31;99040.03;4989854;28;20204;-57
2023/07/18 11:15:10;;;;;;;8.18;7.10;;;;;;;39.23;40.90;99048.56;4988162;28;20648;-57
2023/07/18 11:17:41;;;;;;;10.13;7.28;;;;;;;39.38;41.24;99041.00;4989129;28;20236;-57
2023/07/18 11:20:14;;;;;;;8.45;6.68;;;;;;;39.35;41.48;99044.28;4990069;28;20778;-57
2023/07/18 11:22:41;;;;;;;7.93;5.60;;;;;;;39.49;36.26;99044.25;4989704;28;20208;-57
2023/07/18 11:25:10;;;;;;;7.18;5.72;;;;;;;39.66;38.49;99040.91;4989766;28;20205;-57
2023/07/18 11:27:37;;;;;;;10.88;6.55;;;;;;;39.67;35.36;99029.09;4989710;28;20243;-57